Time;durP1;ratioP1;P1;durP2;ratioP2;P2;SDS_P1;SDS_P2;PMS_P1;PMS_P2;Temp;Humidity;BMP_temperature;BMP_pressure;BME280_temperature;BME280_humidity;BME280_pressure;Samples;Min_cycle;Max_cycle;Signal;HPM_P1;HPM_P2
2021/12/13 00:01:19;;;;;;;8.70;5.60;;;5.90;99.90;;;;;;6180835;23;20426;-92
2021/12/13 00:04:13;;;;;;;8.30;4.47;;;5.90;99.90;;;;;;6184195;23;20399;-92
2021/12/13 00:06:45;;;;;;;6.10;4.70;;;5.80;99.90;;;;;;6163129;23;20413;-93
2021/12/13 00:09:15;;;;;;;6.87;5.00;;;5.70;99.90;;;;;;6184273;23;20900;-93
2021/12/13 00:11:44;;;;;;;5.17;4.27;;;5.80;99.90;;;;;;6184431;23;20398;-93
2021/12/13 00:14:17;;;;;;;4.30;3.47;;;5.80;99.90;;;;;;6184055;23;20450;-93
2021/12/13 00:16:48;;;;;;;6.33;4.30;;;5.80;99.90;;;;;;6183857;23;20776;-92
2021/12/13 00:19:19;;;;;;;3.90;3.50;;;5.80;99.90;;;;;;6208713;23;20398;-92
2021/12/13 00:21:50;;;;;;;3.93;3.37;;;5.80;99.90;;;;;;6178389;23;20393;-92
2021/12/13 00:24:35;;;;;;;3.30;2.90;;;5.80;99.90;;;;;;6182646;23;20404;-92
2021/12/13 00:27:06;;;;;;;6.67;3.50;;;5.80;99.90;;;;;;6176838;23;20764;-92
2021/12/13 00:29:52;;;;;;;5.07;3.20;;;5.80;99.90;;;;;;6182167;23;20727;-93
2021/12/13 00:32:46;;;;;;;4.80;4.13;;;5.80;99.90;;;;;;6183473;23;20421;-93
2021/12/13 00:35:19;;;;;;;4.20;3.57;;;5.80;99.90;;;;;;6183644;23;20492;-92
2021/12/13 00:37:54;;;;;;;4.10;3.73;;;5.80;99.90;;;;;;6182758;23;20449;-93
2021/12/13 00:40:27;;;;;;;4.43;3.87;;;5.70;99.90;;;;;;6182272;23;20483;-93
2021/12/13 00:43:25;;;;;;;3.70;3.30;;;5.70;99.90;;;;;;6207806;23;20381;-92
2021/12/13 00:45:58;;;;;;;4.17;3.70;;;5.70;99.90;;;;;;6175274;23;20561;-93
2021/12/13 00:48:29;;;;;;;5.10;3.83;;;5.80;99.90;;;;;;6177994;23;20408;-93
2021/12/13 00:51:20;;;;;;;4.57;3.60;;;5.90;99.90;;;;;;6206721;23;20390;-93
2021/12/13 00:53:49;;;;;;;4.87;3.67;;;5.90;99.90;;;;;;6179289;23;21035;-92
2021/12/13 00:56:46;;;;;;;4.30;3.90;;;5.90;99.90;;;;;;6181284;23;20493;-93
2021/12/13 00:59:26;;;;;;;7.40;4.27;;;5.90;99.90;;;;;;6179196;23;20399;-93
2021/12/13 01:02:09;;;;;;;4.70;3.67;;;5.90;99.90;;;;;;6178274;23;20399;-91
2021/12/13 01:05:06;;;;;;;4.70;4.17;;;6.00;99.90;;;;;;6179141;23;20444;-92
2021/12/13 01:08:03;;;;;;;4.73;3.90;;;6.00;99.90;;;;;;6175349;23;20749;-93
2021/12/13 01:10:54;;;;;;;4.43;3.70;;;6.10;99.90;;;;;;6179238;23;20452;-92
2021/12/13 01:13:20;;;;;;;5.00;4.60;;;6.10;99.90;;;;;;6178195;23;20430;-91
2021/12/13 01:15:57;;;;;;;4.30;3.70;;;6.20;99.90;;;;;;6178097;23;20779;-92
2021/12/13 01:18:45;;;;;;;5.13;4.50;;;6.10;99.90;;;;;;6177968;23;20167;-92
2021/12/13 01:21:28;;;;;;;4.03;3.70;;;6.10;99.90;;;;;;6180491;23;20414;-92
2021/12/13 01:24:04;;;;;;;4.80;3.60;;;6.10;99.90;;;;;;6177837;23;20720;-92
2021/12/13 01:26:38;;;;;;;5.77;4.33;;;6.10;99.90;;;;;;6179699;23;20393;-93
2021/12/13 01:29:12;;;;;;;6.10;4.03;;;6.10;99.90;;;;;;6177942;23;20405;-92
2021/12/13 01:31:49;;;;;;;4.97;4.10;;;6.00;99.90;;;;;;6178662;23;20787;-93
2021/12/13 01:34:16;;;;;;;4.03;3.37;;;5.90;99.90;;;;;;6178612;23;20559;-92
2021/12/13 01:36:52;;;;;;;5.30;3.67;;;5.90;99.90;;;;;;6180831;23;20403;-92
2021/12/13 01:39:22;;;;;;;7.57;5.20;;;5.80;99.90;;;;;;6178581;23;20457;-92
2021/12/13 01:41:52;;;;;;;5.97;4.70;;;5.80;99.90;;;;;;6177618;23;20439;-92
2021/12/13 01:44:25;;;;;;;5.83;4.50;;;5.70;99.90;;;;;;6179207;23;20423;-92
2021/12/13 01:46:55;;;;;;;5.50;4.33;;;5.70;99.90;;;;;;6179247;23;20413;-92
2021/12/13 01:49:33;;;;;;;4.70;4.07;;;5.70;99.90;;;;;;6179844;23;20391;-92
2021/12/13 01:52:00;;;;;;;4.87;3.97;;;5.90;99.90;;;;;;6178721;23;20493;-92
2021/12/13 01:54:27;;;;;;;4.97;4.33;;;5.90;99.90;;;;;;6177734;23;20822;-93
2021/12/13 01:57:22;;;;;;;5.33;4.00;;;5.90;99.90;;;;;;6177679;23;20545;-93
2021/12/13 02:00:07;;;;;;;5.20;4.70;;;5.90;99.90;;;;;;6178182;23;20785;-93
2021/12/13 02:02:41;;;;;;;6.40;4.90;;;6.00;99.90;;;;;;6180894;23;20400;-91
2021/12/13 02:05:07;;;;;;;6.30;5.27;;;6.00;99.90;;;;;;6195056;23;20382;-92
2021/12/13 02:08:06;;;;;;;7.40;5.10;;;6.00;99.90;;;;;;6190511;23;20495;-92
2021/12/13 02:10:34;;;;;;;5.20;4.53;;;5.90;99.90;;;;;;6178061;23;20168;-92
2021/12/13 02:13:07;;;;;;;5.57;4.93;;;6.00;99.90;;;;;;6177919;23;20817;-92
2021/12/13 02:18:24;;;;;;;8.30;5.97;;;6.00;99.90;;;;;;6205733;23;20477;-92
2021/12/13 02:21:18;;;;;;;6.83;5.53;;;6.00;99.90;;;;;;6179200;23;20407;-92
2021/12/13 02:23:49;;;;;;;5.20;4.70;;;5.90;99.90;;;;;;6177243;23;20825;-92
2021/12/13 02:26:15;;;;;;;4.47;4.07;;;5.90;99.90;;;;;;6178787;23;20919;-92
2021/12/13 02:28:44;;;;;;;7.80;5.23;;;5.90;99.90;;;;;;6176867;23;20394;-92
2021/12/13 02:31:19;;;;;;;5.10;4.70;;;6.00;99.90;;;;;;6178318;23;20430;-92
2021/12/13 02:33:48;;;;;;;5.70;4.67;;;6.00;99.90;;;;;;6178842;23;20445;-92
2021/12/13 02:36:24;;;;;;;5.50;5.00;;;5.90;99.90;;;;;;6179244;23;20426;-92
2021/12/13 02:38:55;;;;;;;10.53;5.60;;;5.90;99.90;;;;;;6178420;23;20394;-92
2021/12/13 02:41:25;;;;;;;6.70;5.03;;;5.80;99.90;;;;;;6174961;23;20470;-92
2021/12/13 02:43:57;;;;;;;5.80;5.20;;;5.80;99.90;;;;;;6178255;23;20401;-92
2021/12/13 02:46:23;;;;;;;6.90;5.60;;;5.70;99.90;;;;;;6177084;23;20392;-93
2021/12/13 02:48:56;;;;;;;6.97;5.00;;;5.60;99.90;;;;;;6179690;23;20401;-91
2021/12/13 02:51:24;;;;;;;6.83;5.40;;;5.60;99.90;;;;;;6177396;23;20465;-92
2021/12/13 02:53:55;;;;;;;6.73;6.07;;;5.50;99.90;;;;;;6179132;23;20445;-93
2021/12/13 02:56:25;;;;;;;7.83;6.00;;;5.40;99.90;;;;;;6181985;23;20382;-92
2021/12/13 02:58:53;;;;;;;9.07;6.10;;;5.40;99.90;;;;;;6179998;23;20514;-92
2021/12/13 03:01:42;;;;;;;9.27;6.83;;;5.40;99.90;;;;;;6179642;23;20398;-92
2021/12/13 03:04:12;;;;;;;8.13;6.97;;;5.20;99.90;;;;;;6181983;23;20401;-93
2021/12/13 03:06:48;;;;;;;8.10;6.40;;;5.30;99.90;;;;;;6182597;23;20398;-92
2021/12/13 03:09:18;;;;;;;7.00;6.30;;;5.30;99.90;;;;;;6181037;23;20401;-92
2021/12/13 03:11:45;;;;;;;10.03;6.67;;;5.30;99.90;;;;;;6181112;23;20398;-92
2021/12/13 03:14:33;;;;;;;8.40;7.53;;;5.40;99.90;;;;;;6182430;23;20442;-92
2021/12/13 03:17:05;;;;;;;9.50;7.07;;;5.30;99.90;;;;;;6176392;23;20444;-92
2021/12/13 03:19:40;;;;;;;9.07;7.30;;;5.30;99.90;;;;;;6178833;23;20405;-92
2021/12/13 03:22:20;;;;;;;9.40;8.17;;;5.40;99.90;;;;;;6178188;23;20390;-92
2021/12/13 03:25:07;;;;;;;8.50;7.60;;;5.30;99.90;;;;;;6177339;23;20413;-92
2021/12/13 03:27:42;;;;;;;9.67;7.50;;;5.30;99.90;;;;;;6178687;23;20402;-93
2021/12/13 03:30:16;;;;;;;10.97;8.23;;;5.40;99.90;;;;;;6178545;23;20472;-92
2021/12/13 03:32:57;;;;;;;13.43;8.10;;;5.30;99.90;;;;;;6177824;23;20455;-92
2021/12/13 03:35:58;;;;;;;10.00;8.20;;;5.30;99.90;;;;;;6177680;23;21001;-91
2021/12/13 03:38:36;;;;;;;12.80;8.77;;;5.30;99.90;;;;;;6162493;23;20477;-91
2021/12/13 03:41:07;;;;;;;12.80;9.33;;;5.30;99.90;;;;;;6177057;23;20406;-92
2021/12/13 03:43:38;;;;;;;12.60;8.73;;;5.30;99.90;;;;;;6178517;23;20521;-92
2021/12/13 03:46:07;;;;;;;12.33;9.47;;;5.30;99.90;;;;;;6180227;23;20473;-92
2021/12/13 03:48:35;;;;;;;12.53;8.20;;;5.30;99.90;;;;;;6179386;23;20489;-92
2021/12/13 03:51:06;;;;;;;11.87;9.67;;;5.30;99.90;;;;;;6177599;23;20398;-92
2021/12/13 03:53:34;;;;;;;11.83;9.63;;;5.30;99.90;;;;;;6178363;23;20438;-92
2021/12/13 03:56:21;;;;;;;13.63;10.43;;;5.30;99.90;;;;;;6176836;23;20410;-92
2021/12/13 03:58:55;;;;;;;12.67;9.03;;;5.40;99.90;;;;;;6175362;23;20507;-92
2021/12/13 04:01:36;;;;;;;12.50;9.77;;;5.40;99.90;;;;;;6176438;23;20426;-92
2021/12/13 04:04:11;;;;;;;13.17;9.53;;;5.40;99.90;;;;;;6206692;23;20895;-91
2021/12/13 04:06:54;;;;;;;15.73;10.00;;;5.40;99.90;;;;;;6176453;23;20878;-91
2021/12/13 04:09:23;;;;;;;14.50;9.83;;;5.40;99.90;;;;;;6177353;23;20733;-91
2021/12/13 04:11:53;;;;;;;14.40;9.90;;;5.40;99.90;;;;;;6177382;23;20414;-93
2021/12/13 04:14:27;;;;;;;13.87;10.30;;;5.30;99.90;;;;;;6204945;23;20462;-92
2021/12/13 04:17:09;;;;;;;14.57;11.10;;;5.40;99.90;;;;;;6177572;23;20773;-93
2021/12/13 04:19:49;;;;;;;13.17;10.20;;;5.40;99.90;;;;;;6178872;23;20843;-92
2021/12/13 04:22:19;;;;;;;15.20;10.37;;;5.50;99.90;;;;;;6177962;23;20390;-93
2021/12/13 04:24:51;;;;;;;11.10;8.70;;;5.40;99.90;;;;;;6178115;23;20730;-92
2021/12/13 04:27:40;;;;;;;15.80;12.23;;;5.40;99.90;;;;;;6177280;23;20437;-92
2021/12/13 04:30:29;;;;;;;13.53;10.40;;;5.40;99.90;;;;;;6175058;23;20507;-91
2021/12/13 04:32:59;;;;;;;15.90;10.30;;;5.50;99.90;;;;;;6171636;23;20931;-92
2021/12/13 04:35:28;;;;;;;13.53;9.47;;;5.50;99.90;;;;;;6176397;23;20845;-92
2021/12/13 04:37:57;;;;;;;13.80;10.30;;;5.50;99.90;;;;;;6181101;23;20745;-92
2021/12/13 04:40:27;;;;;;;12.90;9.90;;;5.50;99.90;;;;;;6177410;23;20402;-92
2021/12/13 04:43:12;;;;;;;14.43;10.37;;;5.50;99.90;;;;;;6177091;23;20449;-92
2021/12/13 04:45:41;;;;;;;12.83;9.50;;;5.50;99.90;;;;;;6177071;23;20401;-92
2021/12/13 04:48:14;;;;;;;12.33;9.67;;;5.50;99.90;;;;;;6181541;23;20391;-93
2021/12/13 04:50:54;;;;;;;13.80;10.73;;;5.50;99.90;;;;;;6177143;23;20406;-93
2021/12/13 04:53:24;;;;;;;14.10;11.00;;;5.50;99.90;;;;;;6179110;23;20817;-93
2021/12/13 04:55:50;;;;;;;11.60;9.93;;;5.50;99.90;;;;;;6181944;23;20422;-92
2021/12/13 04:58:17;;;;;;;14.90;8.93;;;5.60;99.90;;;;;;6182869;23;20428;-93
2021/12/13 05:00:48;;;;;;;16.90;9.90;;;5.60;99.90;;;;;;6177325;23;20557;-93
2021/12/13 05:03:17;;;;;;;13.83;9.70;;;5.60;99.90;;;;;;6178431;23;20827;-93
2021/12/13 05:05:43;;;;;;;13.20;9.60;;;5.70;99.90;;;;;;6179143;23;20729;-93
2021/12/13 05:08:16;;;;;;;13.10;9.20;;;5.70;99.90;;;;;;6178296;23;20403;-93
2021/12/13 05:10:47;;;;;;;10.80;8.60;;;5.70;99.90;;;;;;6180251;23;20391;-92
2021/12/13 05:13:28;;;;;;;12.70;9.30;;;5.80;99.90;;;;;;6177988;23;20400;-92
2021/12/13 05:16:10;;;;;;;11.17;8.97;;;5.80;99.90;;;;;;6179541;23;20498;-92
2021/12/13 05:18:56;;;;;;;12.87;9.47;;;5.80;99.90;;;;;;6179387;23;20779;-91
2021/12/13 05:21:24;;;;;;;14.10;9.93;;;5.60;99.90;;;;;;6184853;23;20406;-91
2021/12/13 05:23:59;;;;;;;18.33;11.10;;;5.60;99.90;;;;;;6182788;23;20441;-92
2021/12/13 05:26:50;;;;;;;18.03;10.80;;;5.50;99.90;;;;;;6179602;23;20733;-92
2021/12/13 05:29:33;;;;;;;17.37;10.63;;;5.50;99.90;;;;;;6139362;23;20386;-92
2021/12/13 05:32:02;;;;;;;16.40;10.67;;;5.40;99.90;;;;;;6179511;23;20483;-92
2021/12/13 05:34:32;;;;;;;16.07;10.60;;;5.40;99.90;;;;;;6174619;23;20438;-92
2021/12/13 05:37:00;;;;;;;15.10;10.40;;;5.50;99.90;;;;;;6177694;23;20450;-92
2021/12/13 05:39:26;;;;;;;14.03;10.03;;;5.50;99.90;;;;;;6177153;23;20431;-92
2021/12/13 05:42:07;;;;;;;18.13;11.30;;;5.50;99.90;;;;;;6176222;23;20406;-92
2021/12/13 05:44:37;;;;;;;13.23;9.53;;;5.50;99.90;;;;;;6178020;23;20456;-92
2021/12/13 05:47:07;;;;;;;15.50;11.10;;;5.60;99.90;;;;;;6178116;23;20398;-93
2021/12/13 05:49:42;;;;;;;11.43;9.70;;;5.60;99.90;;;;;;6181805;23;20407;-93
2021/12/13 05:52:19;;;;;;;11.97;9.37;;;5.80;99.90;;;;;;6180187;23;20386;-92
2021/12/13 05:54:57;;;;;;;13.50;9.87;;;5.80;99.90;;;;;;6182834;23;20760;-92
2021/12/13 05:57:31;;;;;;;13.03;10.50;;;5.80;99.90;;;;;;6183569;23;20741;-92
2021/12/13 06:00:05;;;;;;;15.17;10.57;;;5.80;99.90;;;;;;6182267;23;20395;-93
2021/12/13 06:02:57;;;;;;;12.90;10.80;;;5.80;99.90;;;;;;6181981;23;20403;-91
2021/12/13 06:05:30;;;;;;;16.97;12.43;;;5.90;99.90;;;;;;6175446;23;20763;-89
2021/12/13 06:08:17;;;;;;;13.47;10.50;;;5.90;99.90;;;;;;6181605;23;20405;-90
2021/12/13 06:10:46;;;;;;;16.00;11.30;;;5.90;99.90;;;;;;6181394;23;20521;-89
2021/12/13 06:13:34;;;;;;;15.73;11.30;;;5.90;99.90;;;;;;6182433;23;20506;-88
2021/12/13 06:16:00;;;;;;;19.13;10.50;;;5.90;99.90;;;;;;6181747;23;20445;-88
2021/12/13 06:18:38;;;;;;;16.23;11.37;;;5.90;99.90;;;;;;6182786;23;20873;-88
2021/12/13 06:21:30;;;;;;;14.93;10.47;;;5.90;99.90;;;;;;6183035;23;20248;-89
2021/12/13 06:23:56;;;;;;;14.33;10.50;;;5.90;99.90;;;;;;6182119;23;20869;-88
2021/12/13 06:26:27;;;;;;;19.20;12.70;;;5.80;99.90;;;;;;6180510;23;20557;-88
2021/12/13 06:28:57;;;;;;;18.00;12.80;;;5.90;99.90;;;;;;6181986;23;20394;-88
2021/12/13 06:31:26;;;;;;;21.00;13.63;;;5.90;99.90;;;;;;6181683;23;20419;-88
2021/12/13 06:33:55;;;;;;;16.77;12.20;;;5.90;99.90;;;;;;6182070;23;20438;-89
2021/12/13 06:36:31;;;;;;;16.23;12.80;;;5.90;99.90;;;;;;6183902;23;20392;-89
2021/12/13 06:39:06;;;;;;;17.13;11.73;;;5.80;99.90;;;;;;6184677;23;20398;-88
2021/12/13 06:41:38;;;;;;;17.63;11.53;;;5.80;99.90;;;;;;6182940;23;20440;-88
2021/12/13 06:44:27;;;;;;;16.90;11.97;;;5.80;99.90;;;;;;6181823;23;20449;-88
2021/12/13 06:47:22;;;;;;;21.60;11.53;;;5.70;99.90;;;;;;6180491;23;20408;-89
2021/12/13 06:49:55;;;;;;;15.47;11.80;;;5.80;99.90;;;;;;6179262;23;20530;-88
2021/12/13 06:52:26;;;;;;;12.83;10.57;;;5.70;99.90;;;;;;6182763;23;20432;-88
2021/12/13 06:54:59;;;;;;;18.17;11.70;;;5.70;99.90;;;;;;6180800;23;20773;-88
2021/12/13 06:57:42;;;;;;;21.00;16.17;;;5.70;99.90;;;;;;6179697;23;20493;-88
2021/12/13 07:00:12;;;;;;;18.37;16.23;;;5.70;99.90;;;;;;6178417;23;20396;-88
2021/12/13 07:02:40;;;;;;;20.10;14.30;;;5.70;99.90;;;;;;6177279;23;20956;-88
2021/12/13 07:05:13;;;;;;;20.17;13.80;;;5.70;99.90;;;;;;6176722;23;20710;-88
2021/12/13 07:07:57;;;;;;;21.30;14.30;;;5.70;99.90;;;;;;6180423;23;20901;-88
2021/12/13 07:10:43;;;;;;;;;;;;;;;;;;;;;
2021/12/13 07:13:20;;;;;;;18.80;13.00;;;5.80;99.90;;;;;;6209227;23;20485;-89
2021/12/13 07:16:05;;;;;;;18.30;13.37;;;5.80;99.90;;;;;;6181869;23;20408;-88
2021/12/13 07:18:42;;;;;;;16.90;11.40;;;5.80;99.90;;;;;;6179913;23;20410;-88
2021/12/13 07:21:12;;;;;;;17.57;12.53;;;5.70;99.90;;;;;;6179961;23;20457;-88
2021/12/13 07:24:05;;;;;;;19.87;11.50;;;5.60;99.90;;;;;;6179705;23;20386;-88
2021/12/13 07:26:38;;;;;;;19.07;12.17;;;5.60;99.90;;;;;;6180428;23;20877;-88
2021/12/13 07:29:11;;;;;;;19.67;14.43;;;5.80;99.90;;;;;;6182006;23;20897;-88
2021/12/13 07:31:38;;;;;;;24.57;13.40;;;5.80;99.90;;;;;;6179040;23;20909;-88
2021/12/13 07:34:15;;;;;;;22.23;14.20;;;5.80;99.90;;;;;;6179921;23;20443;-89
2021/12/13 07:36:52;;;;;;;19.70;13.30;;;5.80;99.90;;;;;;6182340;23;20440;-88
2021/12/13 07:39:18;;;;;;;20.70;13.10;;;5.70;99.90;;;;;;6179106;23;20413;-88
2021/12/13 07:42:04;;;;;;;;;;;;;;;;;;;;;
2021/12/13 07:44:39;;;;;;;20.23;13.80;;;5.80;99.90;;;;;;6207337;23;20493;-88
2021/12/13 07:47:13;;;;;;;24.37;13.60;;;5.70;99.90;;;;;;6181290;23;20702;-88
2021/12/13 07:49:43;;;;;;;20.73;13.40;;;5.60;99.90;;;;;;6179465;23;20386;-88
2021/12/13 07:52:21;;;;;;;20.47;14.50;;;5.60;99.90;;;;;;6179371;23;20391;-88
2021/12/13 07:54:46;;;;;;;19.93;12.80;;;5.70;99.90;;;;;;6181370;23;20447;-88
2021/12/13 07:57:35;;;;;;;18.70;13.00;;;5.70;99.90;;;;;;6181968;23;20395;-89
2021/12/13 08:00:21;;;;;;;20.20;13.03;;;5.70;99.90;;;;;;6181917;23;20224;-88
2021/12/13 08:06:06;;;;;;;19.13;13.70;;;5.80;99.90;;;;;;6183262;23;20408;-89
2021/12/13 08:08:34;;;;;;;18.50;14.03;;;5.80;99.90;;;;;;6171857;23;20418;-89
2021/12/13 08:11:01;;;;;;;17.50;13.03;;;5.80;99.90;;;;;;6169774;23;20470;-89
2021/12/13 08:13:31;;;;;;;23.60;14.00;;;5.80;99.90;;;;;;6168834;23;20482;-89
2021/12/13 08:16:18;;;;;;;19.13;13.97;;;5.90;99.90;;;;;;6169179;23;20445;-88
2021/12/13 08:19:17;;;;;;;23.53;13.37;;;6.00;99.90;;;;;;6192871;23;20387;-88
2021/12/13 08:21:59;;;;;;;22.17;14.07;;;6.10;99.90;;;;;;6169516;23;20753;-88
2021/12/13 08:24:56;;;;;;;19.27;13.87;;;6.10;99.90;;;;;;6169075;23;20865;-89
2021/12/13 08:27:27;;;;;;;17.10;13.33;;;6.00;99.90;;;;;;6157752;23;20391;-88
2021/12/13 08:30:29;;;;;;;21.23;15.43;;;6.10;99.90;;;;;;6168967;23;20403;-89
2021/12/13 08:33:20;;;;;;;17.90;13.27;;;6.10;99.90;;;;;;6154443;23;20475;-88
2021/12/13 08:35:54;;;;;;;22.17;14.10;;;6.00;99.90;;;;;;6168055;23;20411;-86
2021/12/13 08:38:40;;;;;;;22.80;14.80;;;6.10;99.90;;;;;;6169344;23;20403;-89
2021/12/13 08:41:15;;;;;;;19.00;13.50;;;6.10;99.90;;;;;;6167781;23;20414;-88
2021/12/13 08:43:54;;;;;;;21.20;15.70;;;6.20;99.90;;;;;;6166119;23;20402;-88
2021/12/13 08:46:46;;;;;;;22.77;14.80;;;6.20;99.90;;;;;;6168001;23;21306;-89
2021/12/13 08:49:29;;;;;;;18.60;12.93;;;6.20;99.90;;;;;;6166636;23;20407;-89
2021/12/13 08:52:13;;;;;;;20.53;13.37;;;6.20;99.90;;;;;;6166825;23;20453;-89
2021/12/13 08:54:39;;;;;;;18.43;12.10;;;6.30;99.90;;;;;;6169486;23;20442;-89
2021/12/13 08:57:09;;;;;;;23.73;16.23;;;6.40;99.90;;;;;;6169552;23;20899;-89
2021/12/13 08:59:56;;;;;;;19.60;14.17;;;6.50;99.90;;;;;;6171351;23;20170;-89
2021/12/13 09:02:27;;;;;;;13.20;11.13;;;6.50;99.90;;;;;;6167616;23;20407;-89
2021/12/13 09:05:26;;;;;;;;;;;;;;;;;;;;;
2021/12/13 09:08:02;;;;;;;17.73;12.17;;;6.50;99.90;;;;;;6195803;23;20387;-88
2021/12/13 09:10:48;;;;;;;18.50;13.50;;;6.60;99.90;;;;;;6169120;23;20412;-89
2021/12/13 09:13:16;;;;;;;15.10;12.77;;;6.70;99.90;;;;;;6168963;23;20410;-89
2021/12/13 09:15:47;;;;;;;20.53;13.60;;;6.70;99.90;;;;;;6168586;23;20438;-88
2021/12/13 09:18:20;;;;;;;17.00;11.37;;;6.80;99.90;;;;;;6168126;23;20427;-89
2021/12/13 09:20:50;;;;;;;15.63;11.73;;;6.80;99.90;;;;;;6168882;23;20431;-89
2021/12/13 09:23:26;;;;;;;15.33;10.90;;;6.90;99.90;;;;;;6168986;23;21204;-89
2021/12/13 09:26:06;;;;;;;18.70;11.27;;;6.90;99.90;;;;;;6170818;23;20746;-89
2021/12/13 09:28:43;;;;;;;14.13;10.63;;;6.70;99.90;;;;;;6171291;23;20413;-89
2021/12/13 09:31:19;;;;;;;17.23;11.40;;;6.80;99.90;;;;;;6169949;23;20405;-89
2021/12/13 09:33:52;;;;;;;16.27;11.50;;;6.80;99.90;;;;;;6164059;23;20432;-88
2021/12/13 09:36:26;;;;;;;18.00;11.77;;;6.80;99.90;;;;;;6167657;23;20569;-89
2021/12/13 09:39:12;;;;;;;14.43;11.90;;;6.90;99.90;;;;;;6169204;23;20801;-89
2021/12/13 09:42:07;;;;;;;15.93;11.67;;;7.00;99.90;;;;;;6171586;23;20422;-88
2021/12/13 09:44:41;;;;;;;13.30;10.70;;;7.20;99.90;;;;;;6168778;23;20816;-89
2021/12/13 09:47:12;;;;;;;15.60;11.90;;;7.40;99.90;;;;;;6169910;23;20450;-89
2021/12/13 09:49:47;;;;;;;14.10;10.47;;;7.50;99.90;;;;;;6169963;23;20931;-89
2021/12/13 09:52:24;;;;;;;13.50;9.87;;;7.50;99.90;;;;;;6167754;23;20437;-88
2021/12/13 09:55:01;;;;;;;16.33;10.53;;;7.50;99.90;;;;;;6167506;23;20472;-89
2021/12/13 09:57:34;;;;;;;16.97;11.67;;;7.50;99.90;;;;;;6169144;23;20429;-89
2021/12/13 10:00:04;;;;;;;15.60;11.50;;;7.40;99.90;;;;;;6168779;23;20496;-88
2021/12/13 10:02:38;;;;;;;14.20;10.33;;;7.30;99.90;;;;;;6169483;23;20383;-89
2021/12/13 10:05:09;;;;;;;14.10;11.37;;;7.40;99.90;;;;;;6168865;23;20440;-89
2021/12/13 10:07:38;;;;;;;14.13;9.57;;;7.40;99.90;;;;;;6169078;23;20803;-89
2021/12/13 10:10:16;;;;;;;12.77;9.80;;;7.50;99.90;;;;;;6168637;23;20402;-89
2021/12/13 10:13:02;;;;;;;15.57;10.87;;;7.50;99.90;;;;;;6170853;23;20419;-89
2021/12/13 10:15:51;;;;;;;11.50;9.50;;;7.70;99.90;;;;;;6169710;23;20443;-89
2021/12/13 10:18:21;;;;;;;15.00;9.73;;;7.50;99.90;;;;;;6167752;23;20673;-88
2021/12/13 10:20:52;;;;;;;11.30;8.10;;;7.60;99.90;;;;;;6168914;23;20409;-89
2021/12/13 10:23:24;;;;;;;11.97;9.13;;;7.70;99.90;;;;;;6169186;23;20429;-88
2021/12/13 10:25:53;;;;;;;11.97;8.47;;;7.80;99.90;;;;;;6166962;23;21007;-89
2021/12/13 10:28:25;;;;;;;14.03;9.27;;;8.00;99.90;;;;;;6168219;23;20646;-89
2021/12/13 10:30:57;;;;;;;11.30;7.87;;;8.00;99.90;;;;;;6166503;23;20403;-89
2021/12/13 10:33:38;;;;;;;9.47;8.23;;;8.00;99.90;;;;;;6165716;23;20442;-89
2021/12/13 10:36:08;;;;;;;11.70;7.90;;;7.90;99.90;;;;;;6167027;23;20406;-89
2021/12/13 10:38:49;;;;;;;10.30;8.30;;;7.80;99.90;;;;;;6169876;23;20406;-89
2021/12/13 10:41:41;;;;;;;9.77;7.77;;;7.70;99.90;;;;;;6167569;23;20588;-89
2021/12/13 10:44:12;;;;;;;10.50;7.50;;;7.80;99.90;;;;;;6150975;23;20385;-89
2021/12/13 10:46:47;;;;;;;9.67;7.67;;;7.80;99.90;;;;;;6167752;23;20772;-88
2021/12/13 10:49:22;;;;;;;10.67;7.87;;;7.90;99.90;;;;;;6171889;23;20485;-89
2021/12/13 10:52:00;;;;;;;10.73;6.70;;;7.90;99.90;;;;;;6168135;23;20470;-89
2021/12/13 10:54:31;;;;;;;9.53;7.30;;;7.90;99.90;;;;;;6168670;23;20446;-89
2021/12/13 10:57:08;;;;;;;11.17;8.20;;;8.00;99.90;;;;;;6172328;23;20395;-89
2021/12/13 10:59:36;;;;;;;8.67;7.10;;;8.10;99.90;;;;;;6170713;23;20936;-89
2021/12/13 11:02:16;;;;;;;9.53;6.70;;;8.10;99.90;;;;;;6169763;23;20856;-90
2021/12/13 11:04:53;;;;;;;11.50;7.47;;;7.90;99.90;;;;;;6144411;23;20418;-89
2021/12/13 11:07:20;;;;;;;9.47;7.33;;;7.90;99.90;;;;;;6169161;23;20390;-89
2021/12/13 11:09:48;;;;;;;8.23;6.80;;;8.00;99.90;;;;;;6169453;23;20811;-89
2021/12/13 11:12:19;;;;;;;10.00;8.00;;;8.10;99.90;;;;;;6169614;23;20386;-89
2021/12/13 11:15:07;;;;;;;9.10;7.10;;;8.10;99.90;;;;;;6169687;23;20936;-89
2021/12/13 11:17:40;;;;;;;11.87;7.30;;;8.30;99.90;;;;;;6169117;23;20406;-88
2021/12/13 11:20:29;;;;;;;9.60;7.80;;;8.20;99.90;;;;;;6169266;23;20406;-88
2021/12/13 11:23:00;;;;;;;10.00;7.70;;;8.30;99.90;;;;;;6166681;23;20866;-88
2021/12/13 11:25:33;;;;;;;9.00;7.47;;;8.40;99.90;;;;;;6165780;23;20416;-88
2021/12/13 11:27:59;;;;;;;9.40;7.73;;;8.50;99.90;;;;;;6167836;23;20398;-88
2021/12/13 11:30:39;;;;;;;8.40;7.00;;;8.60;99.90;;;;;;6167500;23;20395;-88
2021/12/13 11:33:21;;;;;;;8.77;6.90;;;8.60;99.90;;;;;;6167768;23;20394;-89
2021/12/13 11:36:14;;;;;;;9.83;8.50;;;8.60;99.90;;;;;;6167120;23;20446;-88
2021/12/13 11:38:52;;;;;;;15.90;12.00;;;8.70;99.90;;;;;;6166319;23;20409;-89
2021/12/13 11:41:38;;;;;;;9.23;8.23;;;8.90;99.90;;;;;;6169417;23;20446;-89
2021/12/13 11:44:39;;;;;;;12.27;10.13;;;8.90;99.90;;;;;;6168515;23;20403;-89
2021/12/13 11:47:27;;;;;;;9.43;7.67;;;8.90;99.90;;;;;;6168998;23;20449;-90
2021/12/13 11:50:27;;;;;;;7.13;6.30;;;9.30;99.90;;;;;;6169201;23;20422;-89
2021/12/13 11:52:59;;;;;;;7.33;5.60;;;9.50;99.90;;;;;;6170311;23;20402;-88
2021/12/13 11:56:00;;;;;;;6.00;5.13;;;9.60;99.90;;;;;;6172338;23;20447;-89
2021/12/13 11:58:59;;;;;;;8.57;7.70;;;10.00;99.90;;;;;;6113093;23;20399;-89
2021/12/13 12:01:49;;;;;;;5.63;5.00;;;10.30;99.90;;;;;;6171693;23;20401;-89
2021/12/13 12:04:46;;;;;;;4.37;3.97;;;10.60;99.90;;;;;;6172581;23;20493;-89
2021/12/13 12:08:05;;;;;;;3.10;2.80;;;12.30;99.90;;;;;;6172736;23;20425;-90
2021/12/13 12:11:00;;;;;;;4.10;3.70;;;14.40;99.90;;;;;;6048208;23;20479;-90
2021/12/13 12:13:39;;;;;;;4.77;4.27;;;14.40;99.90;;;;;;6125136;23;20403;-90
2021/12/13 12:16:08;;;;;;;4.67;3.70;;;13.30;99.90;;;;;;6172253;23;20430;-89
2021/12/13 12:18:38;;;;;;;4.33;3.63;;;12.20;99.90;;;;;;6174637;23;20453;-90
2021/12/13 12:21:31;;;;;;;4.90;4.40;;;12.00;99.90;;;;;;6173492;23;20465;-90
2021/12/13 12:24:35;;;;;;;3.43;3.13;;;11.70;99.90;;;;;;6172189;23;20395;-90
2021/12/13 12:27:09;;;;;;;3.90;3.50;;;11.40;99.90;;;;;;6169909;23;20394;-90
2021/12/13 12:29:38;;;;;;;3.53;2.90;;;11.10;99.90;;;;;;6172929;23;20439;-89
2021/12/13 12:32:20;;;;;;;3.30;2.70;;;10.90;99.90;;;;;;6172646;23;20402;-89
2021/12/13 12:35:01;;;;;;;3.07;2.50;;;10.90;99.90;;;;;;6172130;23;20525;-90
2021/12/13 12:37:48;;;;;;;2.50;2.40;;;10.70;99.90;;;;;;6173067;23;20410;-89
2021/12/13 12:40:38;;;;;;;3.00;2.70;;;10.60;99.90;;;;;;6172270;23;21235;-90
2021/12/13 12:43:15;;;;;;;2.80;2.60;;;10.30;99.90;;;;;;6172969;23;20423;-90
2021/12/13 12:45:49;;;;;;;3.40;3.10;;;10.30;99.90;;;;;;6172555;23;20409;-89
2021/12/13 12:48:20;;;;;;;2.50;2.30;;;10.30;99.90;;;;;;6172620;23;20779;-90
2021/12/13 12:50:59;;;;;;;;;;;;;;;;;;;;;
2021/12/13 12:53:38;;;;;;;3.77;2.57;;;10.10;99.90;;;;;;6197800;23;20387;-89
2021/12/13 12:56:35;;;;;;;2.50;2.30;;;10.00;99.90;;;;;;6172461;23;20792;-89
2021/12/13 12:59:09;;;;;;;2.63;2.40;;;10.10;99.90;;;;;;6173409;23;20406;-90
2021/12/13 13:01:58;;;;;;;2.90;2.70;;;10.00;99.90;;;;;;6169030;23;20469;-90
2021/12/13 13:04:58;;;;;;;2.20;2.00;;;9.90;99.90;;;;;;6171037;23;20406;-89
2021/12/13 13:07:28;;;;;;;1.70;1.60;;;9.70;99.90;;;;;;6149514;23;20387;-90
2021/12/13 13:09:59;;;;;;;2.30;2.10;;;9.60;99.90;;;;;;6170508;23;20439;-89
2021/12/13 13:12:28;;;;;;;2.70;2.50;;;9.40;99.90;;;;;;6169113;23;20391;-89
2021/12/13 13:15:20;;;;;;;2.50;2.30;;;9.30;99.90;;;;;;6169553;23;20476;-89
2021/12/13 13:17:55;;;;;;;2.60;2.40;;;9.20;99.90;;;;;;6170261;23;20456;-89
2021/12/13 13:20:38;;;;;;;4.47;2.73;;;9.20;99.90;;;;;;6173126;23;20723;-90
2021/12/13 13:23:05;;;;;;;3.37;3.07;;;9.20;99.90;;;;;;6169275;23;20379;-89
2021/12/13 13:25:52;;;;;;;4.53;3.50;;;9.20;99.90;;;;;;6170074;23;20398;-89
2021/12/13 13:28:46;;;;;;;6.73;3.97;;;9.10;99.90;;;;;;6169596;23;20394;-90
2021/12/13 13:31:38;;;;;;;4.20;3.80;;;9.30;99.90;;;;;;6170008;23;20391;-89
2021/12/13 13:34:10;;;;;;;4.90;4.27;;;9.40;99.90;;;;;;6157196;23;20446;-89
2021/12/13 13:36:51;;;;;;;5.83;5.17;;;9.40;99.90;;;;;;6169118;23;20391;-89
2021/12/13 13:42:05;;;;;;;5.90;4.87;;;9.00;99.90;;;;;;6175113;23;20606;-89
2021/12/13 13:44:47;;;;;;;5.33;4.83;;;8.80;99.90;;;;;;6168921;23;20731;-89
2021/12/13 13:47:16;;;;;;;5.87;5.27;;;8.80;99.90;;;;;;6166544;23;20465;-89
2021/12/13 13:49:42;;;;;;;5.00;4.50;;;8.70;99.90;;;;;;6170355;23;20391;-89
2021/12/13 13:52:24;;;;;;;4.70;4.07;;;8.80;99.90;;;;;;6143985;23;20498;-90